createdAt,value
2022-12-01T00:00:25.045Z,2.13
2022-12-01T00:02:54.853Z,2.10
2022-12-01T00:05:24.710Z,1.80
2022-12-01T00:07:54.432Z,2.40
2022-12-01T00:10:30.366Z,2.05
2022-12-01T00:13:06.349Z,1.73
2022-12-01T00:15:38.641Z,2.10
2022-12-01T00:18:08.457Z,2.00
2022-12-01T00:20:38.787Z,2.03
2022-12-01T00:23:08.455Z,1.70
2022-12-01T00:25:38.147Z,2.25
2022-12-01T00:28:07.914Z,1.83
2022-12-01T00:30:37.579Z,1.75
2022-12-01T00:33:07.222Z,2.50
2022-12-01T00:35:36.947Z,1.98
2022-12-01T00:38:06.852Z,2.05
2022-12-01T00:40:36.458Z,1.90
2022-12-01T00:43:06.173Z,1.70
2022-12-01T00:45:35.827Z,1.98
2022-12-01T00:48:05.538Z,2.13
2022-12-01T00:50:35.357Z,2.25
2022-12-01T00:53:04.995Z,2.28
2022-12-01T00:55:34.777Z,1.85
2022-12-01T00:58:04.478Z,2.00
2022-12-01T01:00:34.182Z,1.90
2022-12-01T01:03:04.133Z,2.20
2022-12-01T01:05:37.089Z,1.67
2022-12-01T01:08:09.957Z,1.80
2022-12-01T01:10:47.323Z,2.08
2022-12-01T01:13:17.928Z,2.10
2022-12-01T01:15:47.665Z,1.80
2022-12-01T01:18:17.271Z,1.92
2022-12-01T01:20:47.017Z,1.77
2022-12-01T01:23:16.764Z,2.00
2022-12-01T01:25:46.379Z,1.88
2022-12-01T01:28:16.154Z,2.03
2022-12-01T01:30:45.917Z,2.15
2022-12-01T01:33:15.685Z,2.05
2022-12-01T01:35:45.429Z,1.73
2022-12-01T01:38:15.104Z,1.60
2022-12-01T01:40:50.634Z,1.70
2022-12-01T01:43:40.500Z,2.05
2022-12-01T01:46:12.813Z,1.73
2022-12-01T01:48:45.701Z,1.90
2022-12-01T01:51:17.197Z,1.98
2022-12-01T01:53:48.928Z,1.73
2022-12-01T01:56:18.651Z,2.20
2022-12-01T01:58:49.216Z,2.00
2022-12-01T02:01:18.907Z,1.65
2022-12-01T02:03:49.569Z,2.03
2022-12-01T02:06:19.318Z,2.22
2022-12-01T02:08:49.000Z,1.95
2022-12-01T02:11:50.709Z,1.92
2022-12-01T02:14:26.668Z,1.95
2022-12-01T02:17:00.680Z,1.90
2022-12-01T02:19:42.156Z,1.80
2022-12-01T02:22:53.719Z,2.00
2022-12-01T02:26:12.987Z,1.92
2022-12-01T02:29:07.619Z,1.73
2022-12-01T02:32:01.077Z,2.00
2022-12-01T02:34:46.911Z,1.77
2022-12-01T02:37:23.765Z,2.03
2022-12-01T02:40:11.467Z,2.30
2022-12-01T02:43:01.299Z,2.13
2022-12-01T02:45:51.041Z,2.30
2022-12-01T02:48:34.389Z,1.95
2022-12-01T02:51:13.650Z,2.38
2022-12-01T02:53:43.869Z,2.15
2022-12-01T02:56:17.493Z,2.33
2022-12-01T02:58:47.253Z,2.15
2022-12-01T03:01:47.899Z,1.80
2022-12-01T03:04:35.629Z,1.95
2022-12-01T03:07:08.386Z,1.90
2022-12-01T03:09:47.686Z,1.80
2022-12-01T03:12:42.410Z,2.08
2022-12-01T03:15:24.679Z,2.03
2022-12-01T03:18:08.861Z,1.92
2022-12-01T03:20:51.849Z,1.85
2022-12-01T03:23:25.401Z,2.05
2022-12-01T03:25:59.073Z,2.08
2022-12-01T03:28:35.318Z,1.65
2022-12-01T03:31:10.199Z,2.17
2022-12-01T03:33:59.930Z,2.00
2022-12-01T03:36:39.530Z,1.83
2022-12-01T03:39:18.171Z,1.75
2022-12-01T03:41:56.882Z,2.03
2022-12-01T03:44:36.088Z,2.50
2022-12-01T03:47:16.752Z,2.30
2022-12-01T03:49:54.403Z,2.17
2022-12-01T03:52:27.045Z,1.90
2022-12-01T03:54:56.632Z,2.28
2022-12-01T03:57:38.078Z,2.20
2022-12-01T04:00:10.278Z,2.65
2022-12-01T04:02:40.107Z,2.15
2022-12-01T04:05:13.504Z,2.00
2022-12-01T04:07:43.254Z,1.88
2022-12-01T04:10:13.022Z,1.83
2022-12-01T04:12:42.695Z,2.10
2022-12-01T04:15:16.056Z,1.70
2022-12-01T04:17:46.746Z,2.20
2022-12-01T04:20:17.823Z,1.80
2022-12-01T04:22:47.593Z,2.17
2022-12-01T04:25:17.410Z,1.90
2022-12-01T04:27:47.242Z,1.75
2022-12-01T04:30:17.047Z,2.03
2022-12-01T04:32:46.863Z,2.13
2022-12-01T04:35:16.563Z,2.20
2022-12-01T04:37:46.204Z,2.10
2022-12-01T04:40:16.168Z,2.00
2022-12-01T04:42:45.783Z,2.00
2022-12-01T04:45:15.433Z,2.00
2022-12-01T04:47:45.118Z,2.33
2022-12-01T04:50:14.825Z,1.90
2022-12-01T04:52:44.463Z,2.00
2022-12-01T04:55:16.834Z,1.90
2022-12-01T04:57:46.534Z,1.70
2022-12-01T05:00:17.030Z,1.88
2022-12-01T05:02:47.683Z,1.95
2022-12-01T05:05:17.427Z,2.00
2022-12-01T05:07:47.068Z,2.00
2022-12-01T05:10:16.805Z,1.83
2022-12-01T05:12:49.706Z,2.30
2022-12-01T05:15:22.898Z,2.13
2022-12-01T05:17:52.670Z,2.20
2022-12-01T05:20:43.900Z,1.85
2022-12-01T05:23:16.720Z,2.10
2022-12-01T05:25:47.199Z,2.10
2022-12-01T05:28:16.748Z,1.70
2022-12-01T05:30:46.413Z,1.90
2022-12-01T05:33:16.139Z,2.22
2022-12-01T05:35:45.939Z,2.20
2022-12-01T05:38:15.657Z,1.95
2022-12-01T05:40:45.662Z,2.08
2022-12-01T05:43:15.533Z,1.98
2022-12-01T05:45:45.385Z,2.25
2022-12-01T05:48:15.265Z,2.20
2022-12-01T05:50:45.340Z,1.90
2022-12-01T05:53:16.367Z,2.00
2022-12-01T05:55:46.079Z,1.98
2022-12-01T05:58:16.305Z,1.70
2022-12-01T06:00:46.394Z,1.75
2022-12-01T06:03:16.853Z,1.88
2022-12-01T06:05:46.497Z,2.10
2022-12-01T06:08:16.271Z,1.80
2022-12-01T06:10:46.729Z,2.35
2022-12-01T06:13:16.780Z,1.83
2022-12-01T06:15:46.421Z,1.98
2022-12-01T06:18:16.326Z,2.30
2022-12-01T06:20:46.092Z,2.00
2022-12-01T06:23:15.755Z,2.17
2022-12-01T06:25:46.585Z,2.17
2022-12-01T06:28:16.706Z,1.88
2022-12-01T06:30:46.825Z,2.15
2022-12-01T06:33:16.532Z,2.30
2022-12-01T06:35:46.201Z,2.15
2022-12-01T06:38:15.969Z,1.98
2022-12-01T06:40:46.574Z,1.90
2022-12-01T06:43:16.137Z,1.88
2022-12-01T06:45:45.910Z,1.80
2022-12-01T06:48:15.960Z,1.90
2022-12-01T06:50:45.699Z,1.90
2022-12-01T06:53:15.454Z,1.92
2022-12-01T06:55:45.223Z,1.80
2022-12-01T06:58:15.513Z,1.73
2022-12-01T07:00:49.068Z,1.80
2022-12-01T07:03:22.142Z,1.85
2022-12-01T07:06:00.399Z,2.28
2022-12-01T07:08:31.734Z,2.00
2022-12-01T07:11:14.160Z,2.10
2022-12-01T07:13:48.218Z,2.00
2022-12-01T07:16:18.269Z,1.92
2022-12-01T07:18:48.011Z,1.98
2022-12-01T07:21:18.903Z,2.50
2022-12-01T07:23:48.605Z,2.00
2022-12-01T07:26:21.040Z,2.03
2022-12-01T07:28:50.770Z,2.22
2022-12-01T07:31:21.453Z,1.90
2022-12-01T07:33:51.020Z,1.95
2022-12-01T07:36:20.681Z,2.15
2022-12-01T07:38:50.356Z,2.30
2022-12-01T07:41:21.041Z,2.10
2022-12-01T07:43:51.241Z,2.10
2022-12-01T07:46:24.470Z,1.92
2022-12-01T07:48:56.265Z,2.20
2022-12-01T07:51:27.439Z,1.80
2022-12-01T07:53:57.770Z,2.03
2022-12-01T07:56:27.688Z,2.25
2022-12-01T07:58:57.528Z,2.33
2022-12-01T08:01:27.624Z,2.22
2022-12-01T08:04:02.784Z,2.67
2022-12-01T08:06:32.654Z,1.83
2022-12-01T08:09:02.294Z,2.13
2022-12-01T08:11:32.286Z,2.17
2022-12-01T08:14:02.017Z,2.38
2022-12-01T08:16:32.950Z,2.40
2022-12-01T08:19:02.578Z,1.85
2022-12-01T08:21:32.269Z,2.22
2022-12-01T08:24:01.981Z,1.90
2022-12-01T08:26:31.993Z,2.30
2022-12-01T08:29:01.903Z,2.40
2022-12-01T08:31:34.679Z,2.38
2022-12-01T08:34:08.235Z,2.20
2022-12-01T08:39:09.975Z,2.00
2022-12-01T08:41:39.697Z,2.55
2022-12-01T08:44:09.513Z,2.10
2022-12-01T08:46:39.671Z,2.47
2022-12-01T08:49:09.557Z,2.22
2022-12-01T08:51:39.224Z,2.08
2022-12-01T08:54:08.941Z,2.17
2022-12-01T08:56:41.583Z,2.25
2022-12-01T08:59:11.649Z,2.17
2022-12-01T09:01:53.805Z,2.20
2022-12-01T09:04:26.254Z,2.55
2022-12-01T09:06:58.402Z,2.40
2022-12-01T09:09:30.706Z,3.05
2022-12-01T09:12:00.544Z,2.17
2022-12-01T09:14:30.203Z,2.58
2022-12-01T09:17:00.050Z,2.58
2022-12-01T09:19:30.264Z,2.40
2022-12-01T09:22:00.403Z,2.53
2022-12-01T09:24:30.401Z,2.15
2022-12-01T09:27:01.456Z,2.38
2022-12-01T09:29:32.017Z,2.35
2022-12-01T09:32:02.882Z,2.28
2022-12-01T09:34:32.550Z,2.53
2022-12-01T09:37:02.272Z,2.30
2022-12-01T09:39:32.372Z,2.03
2022-12-01T09:42:09.334Z,2.58
2022-12-01T09:44:47.753Z,2.65
2022-12-01T09:47:36.979Z,2.67
2022-12-01T09:50:20.448Z,2.50
2022-12-01T09:53:18.527Z,2.50
2022-12-01T09:55:48.959Z,2.38
2022-12-01T09:58:27.937Z,2.17
2022-12-01T10:00:57.792Z,2.25
2022-12-01T10:03:37.626Z,2.30
2022-12-01T10:06:29.292Z,2.60
2022-12-01T10:09:31.191Z,2.67
2022-12-01T10:12:34.664Z,2.22
2022-12-01T10:15:37.934Z,2.30
2022-12-01T10:18:44.514Z,2.67
2022-12-01T10:21:23.089Z,2.80
2022-12-01T10:24:23.184Z,2.33
2022-12-01T10:27:28.242Z,1.98
2022-12-01T10:30:07.937Z,2.65
2022-12-01T10:32:59.783Z,2.72
2022-12-01T10:35:37.576Z,2.67
2022-12-01T10:38:14.754Z,2.75
2022-12-01T10:40:46.008Z,2.55
2022-12-01T10:43:15.664Z,2.20
2022-12-01T10:45:47.220Z,2.88
2022-12-01T10:48:24.340Z,2.85
2022-12-01T10:50:55.291Z,2.65
2022-12-01T10:53:38.125Z,2.53
2022-12-01T10:56:09.988Z,2.97
2022-12-01T10:58:49.975Z,2.63
2022-12-01T11:01:27.937Z,2.47
2022-12-01T11:04:26.236Z,2.53
2022-12-01T11:06:56.589Z,3.05
2022-12-01T11:09:33.472Z,2.88
2022-12-01T11:12:05.982Z,2.78
2022-12-01T11:14:54.048Z,2.45
2022-12-01T11:17:35.536Z,3.00
2022-12-01T11:20:29.871Z,3.25
2022-12-01T11:23:22.578Z,3.13
2022-12-01T11:26:10.431Z,2.58
2022-12-01T11:28:45.238Z,2.92
2022-12-01T11:31:15.279Z,3.13
2022-12-01T11:33:56.352Z,2.53
2022-12-01T11:36:31.635Z,2.55
2022-12-01T11:39:04.159Z,3.03
2022-12-01T11:41:39.434Z,2.50
2022-12-01T11:47:24.078Z,3.08
2022-12-01T11:50:03.588Z,2.85
2022-12-01T11:52:38.105Z,2.47
2022-12-01T11:55:14.013Z,2.75
2022-12-01T11:57:48.690Z,2.63
2022-12-01T12:00:27.421Z,3.05
2022-12-01T12:03:18.398Z,2.55
2022-12-01T12:05:51.451Z,2.83
2022-12-01T12:08:40.540Z,2.65
2022-12-01T12:11:26.063Z,2.60
2022-12-01T12:14:07.931Z,2.83
2022-12-01T12:16:55.842Z,2.78
2022-12-01T12:19:34.175Z,2.75
2022-12-01T12:22:53.731Z,3.00
2022-12-01T12:25:46.108Z,3.22
2022-12-01T12:28:33.031Z,3.17
2022-12-01T12:31:05.586Z,3.20
2022-12-01T12:33:52.919Z,2.85
2022-12-01T12:36:36.684Z,3.15
2022-12-01T12:39:26.077Z,3.05
2022-12-01T12:41:58.022Z,2.88
2022-12-01T12:44:53.592Z,2.92
2022-12-01T12:47:39.215Z,2.90
2022-12-01T12:50:15.546Z,3.17
2022-12-01T12:52:51.238Z,3.20
2022-12-01T12:55:46.244Z,3.13
2022-12-01T12:58:49.798Z,3.30
2022-12-01T13:01:25.484Z,3.50
2022-12-01T13:04:00.090Z,3.05
2022-12-01T13:06:32.416Z,2.85
2022-12-01T13:09:30.455Z,3.45
2022-12-01T13:12:10.257Z,2.80
2022-12-01T13:14:44.605Z,2.50
2022-12-01T13:17:24.944Z,3.17
2022-12-01T13:19:54.640Z,3.15
2022-12-01T13:22:35.118Z,3.22
2022-12-01T13:25:06.373Z,3.00
2022-12-01T13:27:40.348Z,2.75
2022-12-01T13:30:23.321Z,3.25
2022-12-01T13:33:09.319Z,3.10
2022-12-01T13:35:40.844Z,2.90
2022-12-01T13:38:26.477Z,3.25
2022-12-01T13:41:16.444Z,3.35
2022-12-01T13:43:59.121Z,3.10
2022-12-01T13:46:48.692Z,3.17
2022-12-01T13:49:42.425Z,3.10
2022-12-01T13:52:24.013Z,3.10
2022-12-01T13:55:12.462Z,3.15
2022-12-01T13:57:52.198Z,3.33
2022-12-01T14:00:29.448Z,2.90
2022-12-01T14:03:17.352Z,3.45
2022-12-01T14:06:09.571Z,2.90
2022-12-01T14:08:50.865Z,2.97
2022-12-01T14:11:23.215Z,2.92
2022-12-01T14:13:52.852Z,3.38
2022-12-01T14:16:23.631Z,3.17
2022-12-01T14:19:01.598Z,2.70
2022-12-01T14:22:01.318Z,2.67
2022-12-01T14:24:43.004Z,2.60
2022-12-01T14:27:14.281Z,2.25
2022-12-01T14:29:45.524Z,2.90
2022-12-01T14:32:17.939Z,3.25
2022-12-01T14:34:48.545Z,3.33
2022-12-01T14:37:30.979Z,3.00
2022-12-01T14:40:08.202Z,2.78
2022-12-01T14:43:05.070Z,2.80
2022-12-01T14:45:52.732Z,2.47
2022-12-01T14:48:33.703Z,2.95
2022-12-01T14:51:21.543Z,2.85
2022-12-01T14:53:54.608Z,2.90
2022-12-01T14:56:26.116Z,3.58
2022-12-01T14:59:14.743Z,2.78
2022-12-01T15:01:44.415Z,3.13
2022-12-01T15:04:14.068Z,2.50
2022-12-01T15:06:44.378Z,2.85
2022-12-01T15:09:35.833Z,3.10
2022-12-01T15:12:11.151Z,2.40
2022-12-01T15:14:50.214Z,3.10
2022-12-01T15:17:38.612Z,2.63
2022-12-01T15:20:36.461Z,2.97
2022-12-01T15:23:15.839Z,3.25
2022-12-01T15:25:47.792Z,2.80
2022-12-01T15:28:32.037Z,2.90
2022-12-01T15:31:03.751Z,2.47
2022-12-01T15:33:40.558Z,2.70
2022-12-01T15:36:10.809Z,3.30
2022-12-01T15:38:42.728Z,3.08
2022-12-01T15:41:28.958Z,2.90
2022-12-01T15:44:07.006Z,2.58
2022-12-01T15:46:37.181Z,3.00
2022-12-01T15:49:18.161Z,2.88
2022-12-01T15:51:52.158Z,2.28
2022-12-01T15:54:28.276Z,3.03
2022-12-01T15:57:00.624Z,2.75
2022-12-01T15:59:37.316Z,2.72
2022-12-01T16:02:22.013Z,2.80
2022-12-01T16:05:01.765Z,3.17
2022-12-01T16:08:11.306Z,2.65
2022-12-01T16:10:37.118Z,2.90
2022-12-01T16:13:57.141Z,2.60
2022-12-01T16:16:38.459Z,2.72
2022-12-01T16:19:11.069Z,2.80
2022-12-01T16:21:51.380Z,3.00
2022-12-01T16:24:25.623Z,2.90
2022-12-01T16:27:10.843Z,3.20
2022-12-01T16:29:58.997Z,3.25
2022-12-01T16:32:43.676Z,2.50
2022-12-01T16:35:32.113Z,3.00
2022-12-01T16:38:06.198Z,2.88
2022-12-01T16:40:35.995Z,3.50
2022-12-01T16:43:05.843Z,3.17
2022-12-01T16:45:35.638Z,2.97
2022-12-01T16:48:09.274Z,3.03
2022-12-01T16:50:39.860Z,3.03
2022-12-01T16:53:09.653Z,3.05
2022-12-01T16:56:00.496Z,3.17
2022-12-01T16:58:30.301Z,3.70
2022-12-01T17:01:00.385Z,2.67
2022-12-01T17:03:30.951Z,2.92
2022-12-01T17:06:05.660Z,2.95
2022-12-01T17:08:36.400Z,2.75
2022-12-01T17:11:08.566Z,3.17
2022-12-01T17:13:39.926Z,2.60
2022-12-01T17:16:16.852Z,2.60
2022-12-01T17:18:48.246Z,2.72
2022-12-01T17:21:17.976Z,3.53
2022-12-01T17:23:47.793Z,2.83
2022-12-01T17:26:20.276Z,2.90
2022-12-01T17:28:50.788Z,2.88
2022-12-01T17:31:20.672Z,3.03
2022-12-01T17:33:51.020Z,2.60
2022-12-01T17:36:21.116Z,2.65
2022-12-01T17:38:51.935Z,3.05
2022-12-01T17:41:27.185Z,3.03
2022-12-01T17:43:58.132Z,2.85
2022-12-01T17:46:27.810Z,3.35
2022-12-01T17:48:57.616Z,3.00
2022-12-01T17:51:27.313Z,2.38
2022-12-01T17:53:57.102Z,3.15
2022-12-01T17:56:26.692Z,3.22
2022-12-01T17:58:56.280Z,2.33
2022-12-01T18:01:30.111Z,2.38
2022-12-01T18:04:00.742Z,3.13
2022-12-01T18:06:30.540Z,2.88
2022-12-01T18:09:02.641Z,2.70
2022-12-01T18:11:32.344Z,3.00
2022-12-01T18:14:03.342Z,2.75
2022-12-01T18:16:34.897Z,3.10
2022-12-01T18:19:04.808Z,2.80
2022-12-01T18:21:34.374Z,2.78
2022-12-01T18:24:05.749Z,2.83
2022-12-01T18:26:36.124Z,3.13
2022-12-01T18:29:12.993Z,2.70
2022-12-01T18:31:42.759Z,2.40
2022-12-01T18:34:13.405Z,2.60
2022-12-01T18:36:43.764Z,2.80
2022-12-01T18:39:14.116Z,2.88
2022-12-01T18:41:43.764Z,2.20
2022-12-01T18:44:13.749Z,3.08
2022-12-01T18:46:43.508Z,2.65
2022-12-01T18:49:13.873Z,2.63
2022-12-01T18:51:43.899Z,2.83
2022-12-01T18:54:15.952Z,2.72
2022-12-01T18:56:45.828Z,2.60
2022-12-01T18:59:18.434Z,2.78
2022-12-01T19:01:50.137Z,3.00
2022-12-01T19:04:19.907Z,2.58
2022-12-01T19:06:49.669Z,2.67
2022-12-01T19:09:19.365Z,2.80
2022-12-01T19:11:49.443Z,2.55
2022-12-01T19:14:21.229Z,2.58
2022-12-01T19:16:51.295Z,2.33
2022-12-01T19:19:21.213Z,2.53
2022-12-01T19:21:51.943Z,2.67
2022-12-01T19:24:21.833Z,2.35
2022-12-01T19:26:51.469Z,2.63
2022-12-01T19:29:21.218Z,3.10
2022-12-01T19:31:51.211Z,2.38
2022-12-01T19:34:21.018Z,2.70
2022-12-01T19:36:51.482Z,2.38
2022-12-01T19:39:21.503Z,2.55
2022-12-01T19:41:51.167Z,2.40
2022-12-01T19:44:20.917Z,2.15
2022-12-01T19:46:50.481Z,2.22
2022-12-01T19:49:20.167Z,2.60
2022-12-01T19:51:50.001Z,2.35
2022-12-01T19:54:21.756Z,2.45
2022-12-01T19:56:51.907Z,2.20
2022-12-01T19:59:21.644Z,2.35
2022-12-01T20:01:51.466Z,2.67
2022-12-01T20:04:21.107Z,2.60
2022-12-01T20:06:50.856Z,2.38
2022-12-01T20:09:20.485Z,2.22
2022-12-01T20:11:50.691Z,2.47
2022-12-01T20:14:20.490Z,2.40
2022-12-01T20:16:50.136Z,2.60
2022-12-01T20:19:19.855Z,1.98
2022-12-01T20:21:49.432Z,2.08
2022-12-01T20:24:24.353Z,2.65
2022-12-01T20:26:55.901Z,2.13
2022-12-01T20:29:30.631Z,2.35
2022-12-01T20:32:02.978Z,2.15
2022-12-01T20:34:36.764Z,2.10
2022-12-01T20:39:38.393Z,2.85
2022-12-01T20:42:08.478Z,2.42
2022-12-01T20:44:39.283Z,2.90
2022-12-01T20:47:09.025Z,2.63
2022-12-01T20:49:38.687Z,2.47
2022-12-01T20:52:08.284Z,2.50
2022-12-01T20:54:37.849Z,2.40
2022-12-01T20:57:07.646Z,2.40
2022-12-01T20:59:37.614Z,2.65
2022-12-01T21:02:07.227Z,2.35
2022-12-01T21:04:36.954Z,2.22
2022-12-01T21:07:06.511Z,2.55
2022-12-01T21:09:36.283Z,2.60
2022-12-01T21:12:34.562Z,2.50
2022-12-01T21:15:29.927Z,2.45
2022-12-01T21:18:07.400Z,1.90
2022-12-01T21:20:41.847Z,2.30
2022-12-01T21:23:16.954Z,2.22
2022-12-01T21:25:46.746Z,2.42
2022-12-01T21:28:25.743Z,2.38
2022-12-01T21:31:17.098Z,2.80
2022-12-01T21:33:46.985Z,2.00
2022-12-01T21:36:19.538Z,2.55
2022-12-01T21:38:52.463Z,2.38
2022-12-01T21:41:32.397Z,2.25
2022-12-01T21:44:18.176Z,2.13
2022-12-01T21:46:49.331Z,2.40
2022-12-01T21:49:23.893Z,2.55
2022-12-01T21:51:55.586Z,3.13
2022-12-01T21:54:25.548Z,2.13
2022-12-01T21:56:59.750Z,2.25
2022-12-01T21:59:30.654Z,2.03
2022-12-01T22:02:00.438Z,2.13
2022-12-01T22:04:34.375Z,2.60
2022-12-01T22:07:04.958Z,2.42
2022-12-01T22:09:37.516Z,2.38
2022-12-01T22:12:30.168Z,1.95
2022-12-01T22:15:03.661Z,2.40
2022-12-01T22:20:17.034Z,2.10
2022-12-01T22:22:46.719Z,1.90
2022-12-01T22:25:29.917Z,2.10
2022-12-01T22:28:01.620Z,2.30
2022-12-01T22:30:31.140Z,2.15
2022-12-01T22:33:08.002Z,2.10
2022-12-01T22:35:57.537Z,1.90
2022-12-01T22:38:36.329Z,2.10
2022-12-01T22:41:21.345Z,2.20
2022-12-01T22:43:54.307Z,2.20
2022-12-01T22:46:30.085Z,2.30
2022-12-01T22:49:08.870Z,1.88
2022-12-01T22:51:39.704Z,2.00
2022-12-01T22:54:11.957Z,1.92
2022-12-01T22:57:08.988Z,2.00
2022-12-01T22:59:41.545Z,2.30
2022-12-01T23:02:20.997Z,1.83
2022-12-01T23:04:56.133Z,2.20
2022-12-01T23:07:33.124Z,2.05
2022-12-01T23:10:16.767Z,2.58
2022-12-01T23:12:48.286Z,1.95
2022-12-01T23:15:38.253Z,2.45
2022-12-01T23:18:25.087Z,2.50
2022-12-01T23:20:59.981Z,2.28
2022-12-01T23:23:33.062Z,2.00
2022-12-01T23:26:09.785Z,2.30
2022-12-01T23:28:40.824Z,1.90
2022-12-01T23:31:11.980Z,1.80
2022-12-01T23:33:41.629Z,2.33
2022-12-01T23:36:17.389Z,2.08
2022-12-01T23:38:53.900Z,1.85
2022-12-01T23:41:32.547Z,2.28
2022-12-01T23:44:06.385Z,2.10
2022-12-01T23:46:36.371Z,2.00
2022-12-01T23:49:11.991Z,2.20
2022-12-01T23:51:47.869Z,2.47
2022-12-01T23:54:32.002Z,2.10
2022-12-01T23:57:05.861Z,1.88
2022-12-01T23:59:35.503Z,2.50
